sensor_id;sensor_type;location;lat;lon;timestamp;temperature;humidity
19340;HTU21D;9804;52.350;6.684;2023-02-01T00:01:50;7.30;-6.00
19340;HTU21D;9804;52.350;6.684;2023-02-01T00:04:15;7.67;-6.00
19340;HTU21D;9804;52.350;6.684;2023-02-01T00:06:41;7.68;-6.00
19340;HTU21D;9804;52.350;6.684;2023-02-01T00:09:06;7.45;-6.00
19340;HTU21D;9804;52.350;6.684;2023-02-01T00:11:31;7.43;-6.00
19340;HTU21D;9804;52.350;6.684;2023-02-01T00:13:57;7.34;-6.00
19340;HTU21D;9804;52.350;6.684;2023-02-01T00:16:28;7.39;-6.00
19340;HTU21D;9804;52.350;6.684;2023-02-01T00:19:03;7.47;-6.00
19340;HTU21D;9804;52.350;6.684;2023-02-01T00:21:30;7.43;-6.00
19340;HTU21D;9804;52.350;6.684;2023-02-01T00:23:56;7.25;-6.00
19340;HTU21D;9804;52.350;6.684;2023-02-01T00:26:24;7.30;-6.00
19340;HTU21D;9804;52.350;6.684;2023-02-01T00:28:51;7.43;-6.00
19340;HTU21D;9804;52.350;6.684;2023-02-01T00:31:16;7.39;-6.00
19340;HTU21D;9804;52.350;6.684;2023-02-01T00:33:41;7.49;-6.00
19340;HTU21D;9804;52.350;6.684;2023-02-01T00:36:07;7.34;-6.00
19340;HTU21D;9804;52.350;6.684;2023-02-01T00:38:36;7.56;-6.00
19340;HTU21D;9804;52.350;6.684;2023-02-01T00:41:03;7.41;-6.00
19340;HTU21D;9804;52.350;6.684;2023-02-01T00:43:30;7.52;-6.00
19340;HTU21D;9804;52.350;6.684;2023-02-01T00:45:56;7.39;-6.00
19340;HTU21D;9804;52.350;6.684;2023-02-01T00:48:21;7.41;-6.00
19340;HTU21D;9804;52.350;6.684;2023-02-01T00:50:46;7.38;-6.00
19340;HTU21D;9804;52.350;6.684;2023-02-01T00:53:12;7.52;-6.00
19340;HTU21D;9804;52.350;6.684;2023-02-01T00:55:37;7.42;-6.00
19340;HTU21D;9804;52.350;6.684;2023-02-01T00:58:03;7.40;-6.00
19340;HTU21D;9804;52.350;6.684;2023-02-01T01:00:31;7.46;-6.00
19340;HTU21D;9804;52.350;6.684;2023-02-01T01:02:57;7.40;-6.00
19340;HTU21D;9804;52.350;6.684;2023-02-01T01:05:22;7.34;-6.00
19340;HTU21D;9804;52.350;6.684;2023-02-01T01:07:47;7.61;-6.00
19340;HTU21D;9804;52.350;6.684;2023-02-01T01:10:13;7.55;-6.00
19340;HTU21D;9804;52.350;6.684;2023-02-01T01:12:38;7.48;-6.00
19340;HTU21D;9804;52.350;6.684;2023-02-01T01:15:04;7.64;-6.00
19340;HTU21D;9804;52.350;6.684;2023-02-01T01:17:31;7.46;-6.00
19340;HTU21D;9804;52.350;6.684;2023-02-01T01:19:56;7.69;-6.00
19340;HTU21D;9804;52.350;6.684;2023-02-01T01:22:22;7.74;-6.00
19340;HTU21D;9804;52.350;6.684;2023-02-01T01:24:47;7.76;-6.00
19340;HTU21D;9804;52.350;6.684;2023-02-01T01:27:13;7.65;-6.00
19340;HTU21D;9804;52.350;6.684;2023-02-01T01:29:38;7.69;-6.00
19340;HTU21D;9804;52.350;6.684;2023-02-01T01:32:03;7.62;-6.00
19340;HTU21D;9804;52.350;6.684;2023-02-01T01:34:29;7.68;-6.00
19340;HTU21D;9804;52.350;6.684;2023-02-01T01:36:54;7.81;-6.00
19340;HTU21D;9804;52.350;6.684;2023-02-01T01:39:19;7.73;-6.00
19340;HTU21D;9804;52.350;6.684;2023-02-01T01:41:45;7.61;-6.00
19340;HTU21D;9804;52.350;6.684;2023-02-01T01:47:14;7.76;-6.00
19340;HTU21D;9804;52.350;6.684;2023-02-01T01:49:41;7.63;-6.00
19340;HTU21D;9804;52.350;6.684;2023-02-01T01:52:07;7.79;-6.00
19340;HTU21D;9804;52.350;6.684;2023-02-01T01:54:36;7.73;-6.00
19340;HTU21D;9804;52.350;6.684;2023-02-01T01:57:18;7.83;-6.00
19340;HTU21D;9804;52.350;6.684;2023-02-01T01:59:50;7.60;-6.00
19340;HTU21D;9804;52.350;6.684;2023-02-01T02:02:18;7.67;-6.00
19340;HTU21D;9804;52.350;6.684;2023-02-01T02:04:44;7.65;-6.00
19340;HTU21D;9804;52.350;6.684;2023-02-01T02:07:13;7.75;-6.00
19340;HTU21D;9804;52.350;6.684;2023-02-01T02:09:41;7.50;-6.00
19340;HTU21D;9804;52.350;6.684;2023-02-01T02:12:08;7.65;-6.00
19340;HTU21D;9804;52.350;6.684;2023-02-01T02:14:34;7.52;-6.00
19340;HTU21D;9804;52.350;6.684;2023-02-01T02:17:33;7.64;-6.00
19340;HTU21D;9804;52.350;6.684;2023-02-01T02:20:34;7.50;-6.00
19340;HTU21D;9804;52.350;6.684;2023-02-01T02:25:56;7.63;-6.00
19340;HTU21D;9804;52.350;6.684;2023-02-01T02:31:54;7.63;-6.00
19340;HTU21D;9804;52.350;6.684;2023-02-01T02:34:26;7.67;-6.00
19340;HTU21D;9804;52.350;6.684;2023-02-01T02:37:04;7.61;-6.00
19340;HTU21D;9804;52.350;6.684;2023-02-01T02:43:18;7.68;-6.00
19340;HTU21D;9804;52.350;6.684;2023-02-01T02:45:45;7.73;-6.00
19340;HTU21D;9804;52.350;6.684;2023-02-01T02:48:53;7.75;-6.00
19340;HTU21D;9804;52.350;6.684;2023-02-01T02:51:34;7.72;-6.00
19340;HTU21D;9804;52.350;6.684;2023-02-01T02:54:23;7.93;-6.00
19340;HTU21D;9804;52.350;6.684;2023-02-01T02:57:10;7.71;-6.00
19340;HTU21D;9804;52.350;6.684;2023-02-01T02:59:57;7.79;-6.00
19340;HTU21D;9804;52.350;6.684;2023-02-01T03:02:43;7.83;-6.00
19340;HTU21D;9804;52.350;6.684;2023-02-01T03:05:35;7.92;-6.00
19340;HTU21D;9804;52.350;6.684;2023-02-01T03:08:04;7.89;-6.00
19340;HTU21D;9804;52.350;6.684;2023-02-01T03:10:58;7.94;-6.00
19340;HTU21D;9804;52.350;6.684;2023-02-01T03:16:18;7.92;-6.00
19340;HTU21D;9804;52.350;6.684;2023-02-01T03:21:18;8.11;-6.00
19340;HTU21D;9804;52.350;6.684;2023-02-01T03:23:46;8.04;-6.00
19340;HTU21D;9804;52.350;6.684;2023-02-01T03:26:15;8.05;-6.00
19340;HTU21D;9804;52.350;6.684;2023-02-01T03:28:48;8.02;-6.00
19340;HTU21D;9804;52.350;6.684;2023-02-01T03:31:14;8.08;-6.00
19340;HTU21D;9804;52.350;6.684;2023-02-01T03:33:40;8.00;-6.00
19340;HTU21D;9804;52.350;6.684;2023-02-01T03:36:26;8.06;-6.00
19340;HTU21D;9804;52.350;6.684;2023-02-01T03:39:05;8.28;-6.00
19340;HTU21D;9804;52.350;6.684;2023-02-01T03:41:46;8.29;-6.00
19340;HTU21D;9804;52.350;6.684;2023-02-01T03:44:30;8.36;-6.00
19340;HTU21D;9804;52.350;6.684;2023-02-01T03:47:04;8.28;-6.00
19340;HTU21D;9804;52.350;6.684;2023-02-01T03:49:35;8.44;-6.00
19340;HTU21D;9804;52.350;6.684;2023-02-01T03:52:02;8.37;-6.00
19340;HTU21D;9804;52.350;6.684;2023-02-01T03:54:29;8.50;-6.00
19340;HTU21D;9804;52.350;6.684;2023-02-01T03:56:57;8.42;-6.00
19340;HTU21D;9804;52.350;6.684;2023-02-01T03:59:24;8.50;-6.00
19340;HTU21D;9804;52.350;6.684;2023-02-01T04:01:50;8.49;-6.00
19340;HTU21D;9804;52.350;6.684;2023-02-01T04:04:15;8.55;-6.00
19340;HTU21D;9804;52.350;6.684;2023-02-01T04:06:49;8.43;-6.00
19340;HTU21D;9804;52.350;6.684;2023-02-01T04:09:14;8.74;-6.00
19340;HTU21D;9804;52.350;6.684;2023-02-01T04:11:40;8.49;-6.00
19340;HTU21D;9804;52.350;6.684;2023-02-01T04:14:05;8.64;-6.00
19340;HTU21D;9804;52.350;6.684;2023-02-01T04:16:31;8.80;-6.00
19340;HTU21D;9804;52.350;6.684;2023-02-01T04:18:57;8.68;-6.00
19340;HTU21D;9804;52.350;6.684;2023-02-01T04:21:24;8.68;-6.00
19340;HTU21D;9804;52.350;6.684;2023-02-01T04:23:49;8.59;-6.00
19340;HTU21D;9804;52.350;6.684;2023-02-01T04:26:16;8.68;-6.00
19340;HTU21D;9804;52.350;6.684;2023-02-01T04:28:41;8.92;-6.00
19340;HTU21D;9804;52.350;6.684;2023-02-01T04:31:07;8.88;-6.00
19340;HTU21D;9804;52.350;6.684;2023-02-01T04:33:32;8.87;-6.00
19340;HTU21D;9804;52.350;6.684;2023-02-01T04:35:57;8.80;-6.00
19340;HTU21D;9804;52.350;6.684;2023-02-01T04:38:23;8.74;-6.00
19340;HTU21D;9804;52.350;6.684;2023-02-01T04:40:48;8.91;-6.00
19340;HTU21D;9804;52.350;6.684;2023-02-01T04:43:14;8.76;-6.00
19340;HTU21D;9804;52.350;6.684;2023-02-01T04:45:40;8.82;-6.00
19340;HTU21D;9804;52.350;6.684;2023-02-01T04:48:05;8.87;-6.00
19340;HTU21D;9804;52.350;6.684;2023-02-01T04:50:30;8.81;-6.00
19340;HTU21D;9804;52.350;6.684;2023-02-01T04:52:56;8.79;-6.00
19340;HTU21D;9804;52.350;6.684;2023-02-01T04:55:21;8.83;-6.00
19340;HTU21D;9804;52.350;6.684;2023-02-01T04:57:47;8.88;-6.00
19340;HTU21D;9804;52.350;6.684;2023-02-01T05:00:12;8.85;-6.00
19340;HTU21D;9804;52.350;6.684;2023-02-01T05:02:38;9.02;-6.00
19340;HTU21D;9804;52.350;6.684;2023-02-01T05:05:04;8.90;-6.00
19340;HTU21D;9804;52.350;6.684;2023-02-01T05:07:30;8.85;-6.00
19340;HTU21D;9804;52.350;6.684;2023-02-01T05:09:55;9.03;-6.00
19340;HTU21D;9804;52.350;6.684;2023-02-01T05:12:20;8.98;-6.00
19340;HTU21D;9804;52.350;6.684;2023-02-01T05:15:05;8.98;-6.00
19340;HTU21D;9804;52.350;6.684;2023-02-01T05:17:30;8.90;-6.00
19340;HTU21D;9804;52.350;6.684;2023-02-01T05:19:56;8.91;-6.00
19340;HTU21D;9804;52.350;6.684;2023-02-01T05:22:22;9.03;-6.00
19340;HTU21D;9804;52.350;6.684;2023-02-01T05:24:47;8.92;-6.00
19340;HTU21D;9804;52.350;6.684;2023-02-01T05:27:13;8.86;-6.00
19340;HTU21D;9804;52.350;6.684;2023-02-01T05:29:38;9.09;-6.00
19340;HTU21D;9804;52.350;6.684;2023-02-01T05:32:04;8.85;-6.00
19340;HTU21D;9804;52.350;6.684;2023-02-01T05:34:29;8.95;-6.00
19340;HTU21D;9804;52.350;6.684;2023-02-01T05:36:55;9.02;-6.00
19340;HTU21D;9804;52.350;6.684;2023-02-01T05:39:22;8.73;-6.00
19340;HTU21D;9804;52.350;6.684;2023-02-01T05:41:48;8.85;-6.00
19340;HTU21D;9804;52.350;6.684;2023-02-01T05:44:13;8.79;-6.00
19340;HTU21D;9804;52.350;6.684;2023-02-01T05:46:39;8.73;-6.00
19340;HTU21D;9804;52.350;6.684;2023-02-01T05:49:04;8.78;-6.00
19340;HTU21D;9804;52.350;6.684;2023-02-01T05:51:30;8.78;-6.00
19340;HTU21D;9804;52.350;6.684;2023-02-01T05:53:55;8.96;-6.00
19340;HTU21D;9804;52.350;6.684;2023-02-01T05:56:21;8.88;-6.00
19340;HTU21D;9804;52.350;6.684;2023-02-01T05:58:46;8.81;-6.00
19340;HTU21D;9804;52.350;6.684;2023-02-01T06:01:12;9.03;-6.00
19340;HTU21D;9804;52.350;6.684;2023-02-01T06:03:37;9.01;-6.00
19340;HTU21D;9804;52.350;6.684;2023-02-01T06:06:03;9.06;-6.00
19340;HTU21D;9804;52.350;6.684;2023-02-01T06:08:29;8.87;-6.00
19340;HTU21D;9804;52.350;6.684;2023-02-01T06:11:04;9.18;-6.00
19340;HTU21D;9804;52.350;6.684;2023-02-01T06:13:30;8.90;-6.00
19340;HTU21D;9804;52.350;6.684;2023-02-01T06:15:56;9.01;-6.00
19340;HTU21D;9804;52.350;6.684;2023-02-01T06:18:23;8.92;-6.00
19340;HTU21D;9804;52.350;6.684;2023-02-01T06:20:55;8.92;-6.00
19340;HTU21D;9804;52.350;6.684;2023-02-01T06:23:22;8.97;-6.00
19340;HTU21D;9804;52.350;6.684;2023-02-01T06:25:53;8.95;-6.00
19340;HTU21D;9804;52.350;6.684;2023-02-01T06:28:24;8.94;-6.00
19340;HTU21D;9804;52.350;6.684;2023-02-01T06:30:49;8.80;-6.00
19340;HTU21D;9804;52.350;6.684;2023-02-01T06:33:15;9.11;-6.00
19340;HTU21D;9804;52.350;6.684;2023-02-01T06:35:41;9.02;-6.00
19340;HTU21D;9804;52.350;6.684;2023-02-01T06:38:09;8.90;-6.00
19340;HTU21D;9804;52.350;6.684;2023-02-01T06:40:34;9.02;-6.00
19340;HTU21D;9804;52.350;6.684;2023-02-01T06:43:00;9.07;-6.00
19340;HTU21D;9804;52.350;6.684;2023-02-01T06:45:26;9.07;-6.00
19340;HTU21D;9804;52.350;6.684;2023-02-01T06:47:51;9.12;-6.00
19340;HTU21D;9804;52.350;6.684;2023-02-01T06:50:17;9.06;-6.00
19340;HTU21D;9804;52.350;6.684;2023-02-01T06:52:42;9.20;-6.00
19340;HTU21D;9804;52.350;6.684;2023-02-01T06:55:08;9.06;-6.00
19340;HTU21D;9804;52.350;6.684;2023-02-01T06:57:33;9.02;-6.00
19340;HTU21D;9804;52.350;6.684;2023-02-01T07:00:02;9.01;-6.00
19340;HTU21D;9804;52.350;6.684;2023-02-01T07:02:28;9.07;-6.00
19340;HTU21D;9804;52.350;6.684;2023-02-01T07:04:53;8.96;-6.00
19340;HTU21D;9804;52.350;6.684;2023-02-01T07:07:19;9.14;-6.00
19340;HTU21D;9804;52.350;6.684;2023-02-01T07:09:45;8.93;-6.00
19340;HTU21D;9804;52.350;6.684;2023-02-01T07:12:11;9.11;-6.00
19340;HTU21D;9804;52.350;6.684;2023-02-01T07:14:36;8.98;-6.00
19340;HTU21D;9804;52.350;6.684;2023-02-01T07:17:01;8.95;-6.00
19340;HTU21D;9804;52.350;6.684;2023-02-01T07:19:27;8.92;-6.00
19340;HTU21D;9804;52.350;6.684;2023-02-01T07:21:52;9.19;-6.00
19340;HTU21D;9804;52.350;6.684;2023-02-01T07:24:17;9.09;-6.00
19340;HTU21D;9804;52.350;6.684;2023-02-01T07:26:43;9.01;-6.00
19340;HTU21D;9804;52.350;6.684;2023-02-01T07:29:08;9.19;-6.00
19340;HTU21D;9804;52.350;6.684;2023-02-01T07:31:34;9.12;-6.00
19340;HTU21D;9804;52.350;6.684;2023-02-01T07:33:59;9.08;-6.00
19340;HTU21D;9804;52.350;6.684;2023-02-01T07:36:26;9.06;-6.00
19340;HTU21D;9804;52.350;6.684;2023-02-01T07:38:51;9.08;-6.00
19340;HTU21D;9804;52.350;6.684;2023-02-01T07:41:17;9.12;-6.00
19340;HTU21D;9804;52.350;6.684;2023-02-01T07:43:43;9.01;-6.00
19340;HTU21D;9804;52.350;6.684;2023-02-01T07:46:09;9.20;-6.00
19340;HTU21D;9804;52.350;6.684;2023-02-01T07:48:35;9.09;-6.00
19340;HTU21D;9804;52.350;6.684;2023-02-01T07:51:06;9.23;-6.00
19340;HTU21D;9804;52.350;6.684;2023-02-01T07:53:33;9.14;-6.00
19340;HTU21D;9804;52.350;6.684;2023-02-01T07:55:59;9.03;-6.00
19340;HTU21D;9804;52.350;6.684;2023-02-01T07:58:25;9.20;-6.00
19340;HTU21D;9804;52.350;6.684;2023-02-01T08:00:51;9.27;-6.00
19340;HTU21D;9804;52.350;6.684;2023-02-01T08:03:35;9.06;-6.00
19340;HTU21D;9804;52.350;6.684;2023-02-01T08:06:01;9.14;-6.00
19340;HTU21D;9804;52.350;6.684;2023-02-01T08:08:26;9.09;-6.00
19340;HTU21D;9804;52.350;6.684;2023-02-01T08:11:00;9.09;-6.00
19340;HTU21D;9804;52.350;6.684;2023-02-01T08:13:25;9.12;-6.00
19340;HTU21D;9804;52.350;6.684;2023-02-01T08:15:51;9.30;-6.00
19340;HTU21D;9804;52.350;6.684;2023-02-01T08:18:16;9.18;-6.00
19340;HTU21D;9804;52.350;6.684;2023-02-01T08:20:45;9.27;-6.00
19340;HTU21D;9804;52.350;6.684;2023-02-01T08:23:12;9.20;-6.00
19340;HTU21D;9804;52.350;6.684;2023-02-01T08:25:38;9.19;-6.00
19340;HTU21D;9804;52.350;6.684;2023-02-01T08:28:04;9.29;-6.00
19340;HTU21D;9804;52.350;6.684;2023-02-01T08:30:30;9.21;-6.00
19340;HTU21D;9804;52.350;6.684;2023-02-01T08:32:55;9.30;-6.00
19340;HTU21D;9804;52.350;6.684;2023-02-01T08:35:21;9.37;-6.00
19340;HTU21D;9804;52.350;6.684;2023-02-01T08:37:46;9.26;-6.00
19340;HTU21D;9804;52.350;6.684;2023-02-01T08:40:11;9.26;-6.00
19340;HTU21D;9804;52.350;6.684;2023-02-01T08:42:38;9.32;-6.00
19340;HTU21D;9804;52.350;6.684;2023-02-01T08:45:18;9.30;-6.00
19340;HTU21D;9804;52.350;6.684;2023-02-01T08:47:47;9.27;-6.00
19340;HTU21D;9804;52.350;6.684;2023-02-01T08:50:13;9.19;-6.00
19340;HTU21D;9804;52.350;6.684;2023-02-01T08:52:38;9.25;-6.00
19340;HTU21D;9804;52.350;6.684;2023-02-01T08:55:05;9.32;-6.00
19340;HTU21D;9804;52.350;6.684;2023-02-01T08:57:31;9.50;-6.00
19340;HTU21D;9804;52.350;6.684;2023-02-01T08:59:56;9.42;-6.00
19340;HTU21D;9804;52.350;6.684;2023-02-01T09:02:22;9.30;-6.00
19340;HTU21D;9804;52.350;6.684;2023-02-01T09:04:47;9.30;-6.00
19340;HTU21D;9804;52.350;6.684;2023-02-01T09:07:12;9.30;-6.00
19340;HTU21D;9804;52.350;6.684;2023-02-01T09:09:38;9.38;-6.00
19340;HTU21D;9804;52.350;6.684;2023-02-01T09:12:04;9.34;-6.00
19340;HTU21D;9804;52.350;6.684;2023-02-01T09:14:30;9.31;-6.00
19340;HTU21D;9804;52.350;6.684;2023-02-01T09:16:55;9.41;-6.00
19340;HTU21D;9804;52.350;6.684;2023-02-01T09:19:20;9.42;-6.00
19340;HTU21D;9804;52.350;6.684;2023-02-01T09:21:46;9.64;-6.00
19340;HTU21D;9804;52.350;6.684;2023-02-01T09:24:11;9.52;-6.00
19340;HTU21D;9804;52.350;6.684;2023-02-01T09:26:37;9.52;-6.00
19340;HTU21D;9804;52.350;6.684;2023-02-01T09:29:03;9.81;-6.00
19340;HTU21D;9804;52.350;6.684;2023-02-01T09:31:29;9.32;-6.00
19340;HTU21D;9804;52.350;6.684;2023-02-01T09:33:55;9.50;-6.00
19340;HTU21D;9804;52.350;6.684;2023-02-01T09:36:21;9.33;-6.00
19340;HTU21D;9804;52.350;6.684;2023-02-01T09:38:46;9.53;-6.00
19340;HTU21D;9804;52.350;6.684;2023-02-01T09:47:00;9.57;-6.00
19340;HTU21D;9804;52.350;6.684;2023-02-01T09:49:29;9.75;-6.00
19340;HTU21D;9804;52.350;6.684;2023-02-01T09:51:56;9.48;-6.00
19340;HTU21D;9804;52.350;6.684;2023-02-01T09:54:25;9.63;-6.00
19340;HTU21D;9804;52.350;6.684;2023-02-01T09:57:19;9.64;-6.00
19340;HTU21D;9804;52.350;6.684;2023-02-01T09:59:44;9.63;-6.00
19340;HTU21D;9804;52.350;6.684;2023-02-01T10:02:15;9.79;-6.00
19340;HTU21D;9804;52.350;6.684;2023-02-01T10:04:42;9.63;-6.00
19340;HTU21D;9804;52.350;6.684;2023-02-01T10:09:47;9.95;-6.00
19340;HTU21D;9804;52.350;6.684;2023-02-01T10:18:33;9.71;-6.00
19340;HTU21D;9804;52.350;6.684;2023-02-01T10:24:06;9.51;-6.00
19340;HTU21D;9804;52.350;6.684;2023-02-01T10:26:42;9.41;-6.00
19340;HTU21D;9804;52.350;6.684;2023-02-01T10:29:16;9.26;-6.00
19340;HTU21D;9804;52.350;6.684;2023-02-01T10:31:43;9.00;-6.00
19340;HTU21D;9804;52.350;6.684;2023-02-01T10:34:30;8.85;-6.00
19340;HTU21D;9804;52.350;6.684;2023-02-01T10:37:43;8.82;-6.00
19340;HTU21D;9804;52.350;6.684;2023-02-01T10:39:49;8.74;-6.00
19340;HTU21D;9804;52.350;6.684;2023-02-01T10:42:20;8.67;-6.00
19340;HTU21D;9804;52.350;6.684;2023-02-01T10:44:47;8.58;-6.00
19340;HTU21D;9804;52.350;6.684;2023-02-01T10:47:13;8.68;-6.00
19340;HTU21D;9804;52.350;6.684;2023-02-01T10:49:56;8.39;-6.00
19340;HTU21D;9804;52.350;6.684;2023-02-01T10:57:59;8.57;-6.00
19340;HTU21D;9804;52.350;6.684;2023-02-01T11:00:25;8.47;-6.00
19340;HTU21D;9804;52.350;6.684;2023-02-01T11:02:52;8.57;-6.00
19340;HTU21D;9804;52.350;6.684;2023-02-01T11:05:18;8.31;-6.00
19340;HTU21D;9804;52.350;6.684;2023-02-01T11:07:49;8.68;-6.00
19340;HTU21D;9804;52.350;6.684;2023-02-01T11:10:40;8.32;-6.00
19340;HTU21D;9804;52.350;6.684;2023-02-01T11:13:13;8.34;-6.00
19340;HTU21D;9804;52.350;6.684;2023-02-01T11:15:43;8.29;-6.00
19340;HTU21D;9804;52.350;6.684;2023-02-01T11:18:21;8.33;-6.00
19340;HTU21D;9804;52.350;6.684;2023-02-01T11:20:50;8.31;-6.00
19340;HTU21D;9804;52.350;6.684;2023-02-01T11:23:19;8.26;-6.00
19340;HTU21D;9804;52.350;6.684;2023-02-01T11:25:57;8.53;-6.00
19340;HTU21D;9804;52.350;6.684;2023-02-01T11:28:25;8.48;-6.00
19340;HTU21D;9804;52.350;6.684;2023-02-01T11:30:55;8.57;-6.00
19340;HTU21D;9804;52.350;6.684;2023-02-01T11:33:25;8.51;-6.00
19340;HTU21D;9804;52.350;6.684;2023-02-01T11:35:56;8.57;-6.00
19340;HTU21D;9804;52.350;6.684;2023-02-01T11:38:33;8.63;-6.00
19340;HTU21D;9804;52.350;6.684;2023-02-01T11:41:19;8.70;-6.00
19340;HTU21D;9804;52.350;6.684;2023-02-01T11:43:59;8.79;-6.00
19340;HTU21D;9804;52.350;6.684;2023-02-01T11:46:29;8.73;-6.00
19340;HTU21D;9804;52.350;6.684;2023-02-01T11:48:57;8.74;-6.00
19340;HTU21D;9804;52.350;6.684;2023-02-01T11:51:43;8.92;-6.00
19340;HTU21D;9804;52.350;6.684;2023-02-01T11:54:24;8.81;-6.00
19340;HTU21D;9804;52.350;6.684;2023-02-01T11:57:23;8.75;-6.00
19340;HTU21D;9804;52.350;6.684;2023-02-01T12:03:09;8.74;-6.00
19340;HTU21D;9804;52.350;6.684;2023-02-01T12:13:41;8.80;-6.00
19340;HTU21D;9804;52.350;6.684;2023-02-01T12:16:48;8.98;-6.00
19340;HTU21D;9804;52.350;6.684;2023-02-01T12:19:32;8.87;-6.00
19340;HTU21D;9804;52.350;6.684;2023-02-01T12:22:32;9.24;-6.00
19340;HTU21D;9804;52.350;6.684;2023-02-01T12:25:09;9.17;-6.00
19340;HTU21D;9804;52.350;6.684;2023-02-01T12:39:27;9.10;-6.00
19340;HTU21D;9804;52.350;6.684;2023-02-01T12:45:02;9.22;-6.00
19340;HTU21D;9804;52.350;6.684;2023-02-01T12:47:57;9.17;-6.00
19340;HTU21D;9804;52.350;6.684;2023-02-01T12:50:29;9.21;-6.00
19340;HTU21D;9804;52.350;6.684;2023-02-01T12:53:08;9.32;-6.00
19340;HTU21D;9804;52.350;6.684;2023-02-01T12:55:38;9.27;-6.00
19340;HTU21D;9804;52.350;6.684;2023-02-01T12:58:14;9.33;-6.00
19340;HTU21D;9804;52.350;6.684;2023-02-01T13:00:50;9.51;-6.00
19340;HTU21D;9804;52.350;6.684;2023-02-01T13:06:02;9.33;-6.00
19340;HTU21D;9804;52.350;6.684;2023-02-01T13:08:50;9.36;-6.00
19340;HTU21D;9804;52.350;6.684;2023-02-01T13:11:38;9.26;-6.00
19340;HTU21D;9804;52.350;6.684;2023-02-01T13:16:47;9.29;-6.00
19340;HTU21D;9804;52.350;6.684;2023-02-01T13:22:15;9.69;-6.00
19340;HTU21D;9804;52.350;6.684;2023-02-01T13:27:12;9.82;-6.00
19340;HTU21D;9804;52.350;6.684;2023-02-01T13:29:46;9.70;-6.00
19340;HTU21D;9804;52.350;6.684;2023-02-01T13:38:20;9.63;-6.00
19340;HTU21D;9804;52.350;6.684;2023-02-01T13:41:20;9.46;-6.00
19340;HTU21D;9804;52.350;6.684;2023-02-01T13:43:51;9.19;-6.00
19340;HTU21D;9804;52.350;6.684;2023-02-01T13:46:18;9.31;-6.00
19340;HTU21D;9804;52.350;6.684;2023-02-01T13:48:56;9.35;-6.00
19340;HTU21D;9804;52.350;6.684;2023-02-01T13:51:40;9.37;-6.00
19340;HTU21D;9804;52.350;6.684;2023-02-01T13:54:07;9.60;-6.00
19340;HTU21D;9804;52.350;6.684;2023-02-01T13:56:47;9.54;-6.00
19340;HTU21D;9804;52.350;6.684;2023-02-01T13:59:46;9.80;-6.00
19340;HTU21D;9804;52.350;6.684;2023-02-01T14:05:01;9.56;-6.00
19340;HTU21D;9804;52.350;6.684;2023-02-01T14:07:27;9.40;-6.00
19340;HTU21D;9804;52.350;6.684;2023-02-01T14:09:53;9.26;-6.00
19340;HTU21D;9804;52.350;6.684;2023-02-01T14:12:45;9.34;-6.00
19340;HTU21D;9804;52.350;6.684;2023-02-01T14:17:43;9.39;-6.00
19340;HTU21D;9804;52.350;6.684;2023-02-01T14:20:45;9.34;-6.00
19340;HTU21D;9804;52.350;6.684;2023-02-01T14:23:16;9.15;-6.00
19340;HTU21D;9804;52.350;6.684;2023-02-01T14:25:43;9.17;-6.00
19340;HTU21D;9804;52.350;6.684;2023-02-01T14:28:23;9.22;-6.00
19340;HTU21D;9804;52.350;6.684;2023-02-01T14:30:50;9.22;-6.00
19340;HTU21D;9804;52.350;6.684;2023-02-01T14:33:24;9.32;-6.00
19340;HTU21D;9804;52.350;6.684;2023-02-01T14:36:12;9.21;-6.00
19340;HTU21D;9804;52.350;6.684;2023-02-01T14:38:38;9.26;-6.00
19340;HTU21D;9804;52.350;6.684;2023-02-01T14:41:32;9.22;-6.00
19340;HTU21D;9804;52.350;6.684;2023-02-01T14:49:32;9.42;-6.00
19340;HTU21D;9804;52.350;6.684;2023-02-01T14:51:59;9.52;-6.00
19340;HTU21D;9804;52.350;6.684;2023-02-01T14:54:25;9.63;-6.00
19340;HTU21D;9804;52.350;6.684;2023-02-01T14:56:51;9.62;-6.00
19340;HTU21D;9804;52.350;6.684;2023-02-01T14:59:20;9.72;-6.00
19340;HTU21D;9804;52.350;6.684;2023-02-01T15:01:55;9.81;-6.00
19340;HTU21D;9804;52.350;6.684;2023-02-01T15:04:26;9.77;-6.00
19340;HTU21D;9804;52.350;6.684;2023-02-01T15:06:57;9.63;-6.00
19340;HTU21D;9804;52.350;6.684;2023-02-01T15:12:03;9.57;-6.00
19340;HTU21D;9804;52.350;6.684;2023-02-01T15:14:32;9.51;-6.00
19340;HTU21D;9804;52.350;6.684;2023-02-01T15:16:58;9.27;-6.00
19340;HTU21D;9804;52.350;6.684;2023-02-01T15:19:27;9.36;-6.00
19340;HTU21D;9804;52.350;6.684;2023-02-01T15:21:57;9.24;-6.00
19340;HTU21D;9804;52.350;6.684;2023-02-01T15:24:25;9.36;-6.00
19340;HTU21D;9804;52.350;6.684;2023-02-01T15:26:53;9.47;-6.00
19340;HTU21D;9804;52.350;6.684;2023-02-01T15:29:20;9.51;-6.00
19340;HTU21D;9804;52.350;6.684;2023-02-01T15:31:50;9.48;-6.00
19340;HTU21D;9804;52.350;6.684;2023-02-01T15:34:17;9.74;-6.00
19340;HTU21D;9804;52.350;6.684;2023-02-01T15:36:44;9.42;-6.00
19340;HTU21D;9804;52.350;6.684;2023-02-01T15:39:25;9.41;-6.00
19340;HTU21D;9804;52.350;6.684;2023-02-01T15:41:58;9.41;-6.00
19340;HTU21D;9804;52.350;6.684;2023-02-01T15:46:57;9.55;-6.00
19340;HTU21D;9804;52.350;6.684;2023-02-01T15:49:29;9.55;-6.00
19340;HTU21D;9804;52.350;6.684;2023-02-01T15:52:00;9.46;-6.00
19340;HTU21D;9804;52.350;6.684;2023-02-01T15:54:28;9.52;-6.00
19340;HTU21D;9804;52.350;6.684;2023-02-01T15:56:59;9.59;-6.00
19340;HTU21D;9804;52.350;6.684;2023-02-01T15:59:40;9.46;-6.00
19340;HTU21D;9804;52.350;6.684;2023-02-01T16:02:34;9.55;-6.00
19340;HTU21D;9804;52.350;6.684;2023-02-01T16:05:01;9.72;-6.00
19340;HTU21D;9804;52.350;6.684;2023-02-01T16:07:30;9.67;-6.00
19340;HTU21D;9804;52.350;6.684;2023-02-01T16:09:58;9.70;-6.00
19340;HTU21D;9804;52.350;6.684;2023-02-01T16:12:32;9.63;-6.00
19340;HTU21D;9804;52.350;6.684;2023-02-01T16:15:00;9.65;-6.00
19340;HTU21D;9804;52.350;6.684;2023-02-01T16:17:25;9.54;-6.00
19340;HTU21D;9804;52.350;6.684;2023-02-01T16:19:51;9.59;-6.00
19340;HTU21D;9804;52.350;6.684;2023-02-01T16:22:16;9.68;-6.00
19340;HTU21D;9804;52.350;6.684;2023-02-01T16:24:41;9.51;-6.00
19340;HTU21D;9804;52.350;6.684;2023-02-01T16:27:07;9.35;-6.00
19340;HTU21D;9804;52.350;6.684;2023-02-01T16:29:33;9.40;-6.00
19340;HTU21D;9804;52.350;6.684;2023-02-01T16:31:59;9.39;-6.00
19340;HTU21D;9804;52.350;6.684;2023-02-01T16:34:25;9.41;-6.00
19340;HTU21D;9804;52.350;6.684;2023-02-01T16:36:50;9.40;-6.00
19340;HTU21D;9804;52.350;6.684;2023-02-01T16:39:18;9.56;-6.00
19340;HTU21D;9804;52.350;6.684;2023-02-01T16:41:43;9.37;-6.00
19340;HTU21D;9804;52.350;6.684;2023-02-01T16:44:10;9.39;-6.00
19340;HTU21D;9804;52.350;6.684;2023-02-01T16:46:39;9.42;-6.00
19340;HTU21D;9804;52.350;6.684;2023-02-01T16:49:05;9.53;-6.00
19340;HTU21D;9804;52.350;6.684;2023-02-01T16:51:32;9.65;-6.00
19340;HTU21D;9804;52.350;6.684;2023-02-01T16:53:58;9.63;-6.00
19340;HTU21D;9804;52.350;6.684;2023-02-01T16:56:34;9.63;-6.00
19340;HTU21D;9804;52.350;6.684;2023-02-01T16:59:01;9.68;-6.00
19340;HTU21D;9804;52.350;6.684;2023-02-01T17:01:27;9.41;-6.00
19340;HTU21D;9804;52.350;6.684;2023-02-01T17:03:52;9.37;-6.00
19340;HTU21D;9804;52.350;6.684;2023-02-01T17:06:20;9.50;-6.00
19340;HTU21D;9804;52.350;6.684;2023-02-01T17:08:50;9.32;-6.00
19340;HTU21D;9804;52.350;6.684;2023-02-01T17:11:16;9.35;-6.00
19340;HTU21D;9804;52.350;6.684;2023-02-01T17:13:42;9.11;-6.00
19340;HTU21D;9804;52.350;6.684;2023-02-01T17:18:47;9.11;-6.00
19340;HTU21D;9804;52.350;6.684;2023-02-01T17:21:15;9.11;-6.00
19340;HTU21D;9804;52.350;6.684;2023-02-01T17:23:41;9.09;-6.00
19340;HTU21D;9804;52.350;6.684;2023-02-01T17:26:09;8.97;-6.00
19340;HTU21D;9804;52.350;6.684;2023-02-01T17:28:35;9.17;-6.00
19340;HTU21D;9804;52.350;6.684;2023-02-01T17:31:00;9.36;-6.00
19340;HTU21D;9804;52.350;6.684;2023-02-01T17:33:30;9.04;-6.00
19340;HTU21D;9804;52.350;6.684;2023-02-01T17:35:56;9.11;-6.00
19340;HTU21D;9804;52.350;6.684;2023-02-01T17:38:23;8.96;-6.00
19340;HTU21D;9804;52.350;6.684;2023-02-01T17:40:48;9.06;-6.00
19340;HTU21D;9804;52.350;6.684;2023-02-01T17:43:16;8.94;-6.00
19340;HTU21D;9804;52.350;6.684;2023-02-01T17:45:49;9.12;-6.00